Time;durP1;ratioP1;P1;durP2;ratioP2;P2;SDS_P1;SDS_P2;PMS_P1;PMS_P2;Temp;Humidity;BMP_temperature;BMP_pressure;BME280_temperature;BME280_humidity;BME280_pressure;Samples;Min_cycle;Max_cycle;Signal;HPM_P1;HPM_P2
2021/12/11 00:00:54;;;;;;;0.90;0.60;;;;;;;10.86;55.15;98431.56;5119466;27;20252;-86
2021/12/11 00:03:32;;;;;;;5.43;0.93;;;;;;;10.90;55.53;98427.81;5119214;27;20163;-86
2021/12/11 00:06:08;;;;;;;2.73;0.80;;;;;;;10.62;57.23;98427.88;5118066;27;20179;-88
2021/12/11 00:08:34;;;;;;;1.53;0.63;;;;;;;10.47;58.08;98429.72;5118294;27;20178;-87
2021/12/11 00:11:20;;;;;;;0.70;0.40;;;;;;;10.45;58.51;98431.59;5118396;27;20171;-88
2021/12/11 00:13:46;;;;;;;0.33;0.27;;;;;;;10.60;58.17;98438.47;5118976;27;20181;-89
2021/12/11 00:16:18;;;;;;;0.97;0.57;;;;;;;10.63;58.37;98440.06;5118672;27;20183;-88
2021/12/11 00:18:44;;;;;;;7.20;0.70;;;;;;;10.81;57.51;98439.72;5113157;27;20180;-88
2021/12/11 00:21:14;;;;;;;0.70;0.40;;;;;;;10.64;57.74;98452.22;5117390;27;20194;-88
2021/12/11 00:23:43;;;;;;;0.63;0.40;;;;;;;10.62;58.25;98443.59;5136713;27;20175;-88
2021/12/11 00:26:11;;;;;;;0.53;0.30;;;;;;;10.58;58.61;98458.69;5118719;27;20624;-88
2021/12/11 00:28:49;;;;;;;1.47;0.60;;;;;;;10.64;58.42;98457.47;5118270;27;20171;-88
2021/12/11 00:31:15;;;;;;;0.53;0.30;;;;;;;10.76;57.88;98472.41;5136307;27;20198;-88
2021/12/11 00:33:41;;;;;;;1.50;0.60;;;;;;;10.85;57.83;98477.03;5136662;27;20159;-88
2021/12/11 00:36:12;;;;;;;1.37;0.40;;;;;;;10.99;57.55;98479.63;5136063;27;20171;-89
2021/12/11 00:38:39;;;;;;;1.20;0.50;;;;;;;10.93;57.49;98486.13;5136196;27;20183;-87
2021/12/11 00:41:09;;;;;;;1.23;0.57;;;;;;;10.79;58.28;98495.81;5136520;27;20167;-88
2021/12/11 00:43:35;;;;;;;2.73;0.77;;;;;;;10.75;58.33;98487.28;5136154;27;20171;-86
2021/12/11 00:46:05;;;;;;;1.17;0.50;;;;;;;10.75;58.82;98491.69;5136405;27;20175;-87
2021/12/11 00:48:31;;;;;;;0.77;0.40;;;;;;;10.65;59.10;98490.59;5136270;27;20178;-86
2021/12/11 00:51:06;;;;;;;0.33;0.27;;;;;;;10.69;58.83;98481.59;5118200;27;20175;-87
2021/12/11 00:53:39;;;;;;;0.53;0.37;;;;;;;10.65;59.36;98487.97;5118273;27;20175;-88
2021/12/11 00:56:11;;;;;;;1.17;0.57;;;;;;;10.64;59.14;98487.13;5136302;27;20493;-87
2021/12/11 00:58:39;;;;;;;2.07;0.77;;;;;;;10.46;59.21;98486.50;5117757;27;20186;-86
2021/12/11 01:01:08;;;;;;;1.13;0.60;;;;;;;10.49;59.44;98481.06;5135333;27;20294;-86
2021/12/11 01:03:48;;;;;;;0.63;0.40;;;;;;;10.58;59.16;98479.66;5135948;27;20211;-87
2021/12/11 01:06:19;;;;;;;0.70;0.30;;;;;;;10.55;59.54;98479.84;5135995;27;20224;-87
2021/12/11 01:08:57;;;;;;;0.20;0.20;;;;;;;10.61;59.35;98482.09;5136064;27;20167;-86
2021/12/11 01:11:25;;;;;;;0.30;0.20;;;;;;;10.73;59.12;98485.72;5136058;27;20269;-87
2021/12/11 01:14:14;;;;;;;1.63;0.63;;;;;;;10.77;59.15;98477.53;5135967;27;20171;-86
2021/12/11 01:16:41;;;;;;;1.33;0.43;;;;;;;10.90;59.18;98480.25;5118895;27;20172;-87
2021/12/11 01:19:16;;;;;;;0.93;0.60;;;;;;;10.97;58.78;98482.38;5117693;27;20235;-87
2021/12/11 01:21:54;;;;;;;0.40;0.30;;;;;;;11.17;58.22;98483.69;5135769;27;20173;-87
2021/12/11 01:24:31;;;;;;;3.60;0.80;;;;;;;11.31;57.77;98483.63;5117244;27;20326;-87
2021/12/11 01:27:02;;;;;;;2.13;0.60;;;;;;;11.33;57.73;98476.50;5136149;27;20614;-88
2021/12/11 01:29:41;;;;;;;2.17;0.63;;;;;;;11.22;58.04;98471.09;5117543;27;20166;-88
2021/12/11 01:32:11;;;;;;;2.43;0.30;;;;;;;11.26;58.10;98467.34;5135530;27;20541;-87
2021/12/11 01:34:39;;;;;;;1.10;0.40;;;;;;;11.33;58.32;98455.50;5117334;27;20546;-87
2021/12/11 01:37:06;;;;;;;0.77;0.30;;;;;;;11.22;58.65;98457.13;5135220;27;20236;-88
2021/12/11 01:39:37;;;;;;;0.87;0.30;;;;;;;11.24;59.08;98450.03;5117332;27;20174;-88
2021/12/11 01:42:18;;;;;;;0.70;0.30;;;;;;;11.17;58.97;98441.72;5117193;27;20163;-88
2021/12/11 01:44:48;;;;;;;1.30;0.40;;;;;;;11.13;59.44;98447.28;5101213;27;20194;-87
2021/12/11 01:47:19;;;;;;;0.30;0.30;;;;;;;11.09;60.06;98457.97;5117320;27;20240;-88
2021/12/11 01:49:49;;;;;;;0.90;0.30;;;;;;;11.15;59.96;98451.47;5096916;28;20164;-88
2021/12/11 01:52:32;;;;;;;1.10;0.43;;;;;;;11.14;60.37;98447.16;5116670;27;20263;-88
2021/12/11 01:55:07;;;;;;;1.83;0.70;;;;;;;11.16;60.19;98442.69;5135387;27;20183;-88
2021/12/11 01:57:33;;;;;;;0.60;0.50;;;;;;;11.30;59.96;98452.22;5117848;27;20171;-88
2021/12/11 02:00:14;;;;;;;0.87;0.23;;;;;;;11.26;60.22;98458.63;5134765;27;20194;-88
2021/12/11 02:02:51;;;;;;;3.53;0.67;;;;;;;11.02;60.91;98463.72;5116874;27;20246;-88
2021/12/11 02:05:25;;;;;;;0.60;0.43;;;;;;;10.93;61.15;98452.03;5135153;27;20215;-88
2021/12/11 02:07:55;;;;;;;0.93;0.70;;;;;;;11.01;61.42;98454.16;5117340;27;20162;-88
2021/12/11 02:10:34;;;;;;;3.97;0.73;;;;;;;11.10;61.23;98445.69;5083318;27;20191;-88
2021/12/11 02:13:06;;;;;;;1.57;0.43;;;;;;;11.03;61.62;98447.03;5134593;27;20198;-88
2021/12/11 02:15:39;;;;;;;4.17;0.77;;;;;;;11.16;61.31;98445.31;5116307;27;20254;-88
2021/12/11 02:18:23;;;;;;;2.40;1.27;;;;;;;10.93;61.91;98433.69;5117374;27;20186;-88
2021/12/11 02:20:59;;;;;;;1.87;0.63;;;;;;;10.97;62.20;98431.69;5134919;27;20155;-88
2021/12/11 02:23:28;;;;;;;1.00;0.57;;;;;;;10.83;62.86;98435.22;5113025;28;20628;-88
2021/12/11 02:26:02;;;;;;;1.63;0.90;;;;;;;10.58;63.83;98439.50;5077279;28;20225;-89
2021/12/11 02:28:43;;;;;;;5.00;0.50;;;;;;;10.53;64.38;98429.34;5059003;28;20642;-88
2021/12/11 02:31:35;;;;;;;2.20;1.17;;;;;;;10.88;62.89;98419.19;5076287;28;20204;-88
2021/12/11 02:34:22;;;;;;;2.03;0.67;;;;;;;10.87;62.87;98428.84;5059082;28;20182;-88
2021/12/11 02:37:11;;;;;;;0.63;0.27;;;;;;;10.94;62.75;98431.91;5103907;28;20530;-88
2021/12/11 02:39:59;;;;;;;0.87;0.60;;;;;;;10.74;63.76;98435.81;5114017;28;20160;-89
2021/12/11 02:42:41;;;;;;;3.07;0.53;;;;;;;10.72;64.26;98435.06;5095856;28;20176;-88
2021/12/11 02:45:25;;;;;;;0.90;0.50;;;;;;;10.96;63.36;98443.13;5113908;28;20179;-88
2021/12/11 02:48:05;;;;;;;1.03;0.40;;;;;;;11.03;63.08;98426.88;5095849;28;20171;-88
2021/12/11 02:50:43;;;;;;;5.00;0.57;;;;;;;10.85;63.55;98425.47;5079835;28;20210;-88
2021/12/11 02:53:33;;;;;;;1.03;0.57;;;;;;;10.76;64.34;98428.69;5110313;28;20679;-88
2021/12/11 02:56:23;;;;;;;0.50;0.37;;;;;;;11.00;63.75;98428.88;5113699;28;20250;-88
2021/12/11 02:58:57;;;;;;;0.40;0.30;;;;;;;11.18;63.27;98432.91;5095684;28;20284;-88
2021/12/11 03:01:30;;;;;;;0.90;0.60;;;;;;;11.11;63.45;98431.63;5096381;28;20255;-88
2021/12/11 03:04:25;;;;;;;1.37;0.40;;;;;;;11.07;63.71;98441.50;5113105;28;20168;-88
2021/12/11 03:06:54;;;;;;;1.17;0.80;;;;;;;11.15;63.40;98438.38;5113758;28;20163;-87
2021/12/11 03:09:23;;;;;;;0.73;0.63;;;;;;;11.07;64.13;98436.25;5113706;28;20263;-88
2021/12/11 03:11:53;;;;;;;2.43;0.40;;;;;;;11.03;64.56;98433.94;5095429;28;20187;-88
2021/12/11 03:14:24;;;;;;;1.17;0.40;;;;;;;10.93;65.12;98431.06;5113317;28;20160;-88
2021/12/11 03:16:52;;;;;;;0.77;0.50;;;;;;;10.73;66.35;98428.03;5095855;28;20172;-88
2021/12/11 03:19:23;;;;;;;0.33;0.30;;;;;;;10.51;67.55;98420.69;5112366;28;20296;-89
2021/12/11 03:21:51;;;;;;;0.23;0.23;;;;;;;10.60;67.82;98432.38;5113053;28;20261;-88
2021/12/11 03:24:18;;;;;;;0.20;0.20;;;;;;;10.71;67.60;98416.81;5109177;27;20233;-88
2021/12/11 03:26:49;;;;;;;2.03;1.10;;;;;;;10.68;68.06;98428.34;5138186;27;20174;-88
2021/12/11 03:29:16;;;;;;;2.40;0.67;;;;;;;10.65;68.86;98438.16;5120468;27;20183;-88
2021/12/11 03:31:44;;;;;;;7.67;0.87;;;;;;;10.78;68.13;98441.69;5137800;27;20210;-88
2021/12/11 03:34:18;;;;;;;2.60;0.67;;;;;;;10.52;69.63;98426.78;5085765;27;20236;-89
2021/12/11 03:36:45;;;;;;;1.53;0.50;;;;;;;10.29;70.72;98423.00;5137729;27;20167;-89
2021/12/11 03:39:20;;;;;;;1.47;0.83;;;;;;;10.23;71.35;98426.84;5137714;27;20178;-88
2021/12/11 03:41:49;;;;;;;1.33;0.53;;;;;;;10.31;70.82;98419.34;5137775;27;20173;-89
2021/12/11 03:44:16;;;;;;;1.00;0.40;;;;;;;10.29;71.07;98416.00;5119536;27;20671;-89
2021/12/11 03:46:45;;;;;;;4.73;1.23;;;;;;;10.32;71.00;98412.34;5119421;27;20183;-88
2021/12/11 03:49:16;;;;;;;3.13;0.70;;;;;;;10.57;70.14;98412.47;5123459;27;20193;-89
2021/12/11 03:51:50;;;;;;;3.93;1.40;;;;;;;10.25;71.48;98409.25;5119654;27;20222;-89
2021/12/11 03:54:31;;;;;;;1.17;0.43;;;;;;;10.35;71.58;98414.78;5119050;27;20640;-88
2021/12/11 03:57:05;;;;;;;3.60;0.70;;;;;;;10.54;71.13;98419.66;5119472;27;20682;-88
2021/12/11 03:59:32;;;;;;;0.83;0.40;;;;;;;10.69;70.17;98423.94;5102731;27;20167;-88
2021/12/11 04:02:08;;;;;;;0.97;0.67;;;;;;;10.87;69.44;98407.03;5137281;27;20259;-87
2021/12/11 04:04:56;;;;;;;1.97;0.60;;;;;;;10.79;69.82;98398.81;5120147;27;20186;-88
2021/12/11 04:07:27;;;;;;;0.90;0.50;;;;;;;10.60;70.14;98411.44;5116118;27;20190;-87
2021/12/11 04:09:55;;;;;;;3.60;0.50;;;;;;;10.70;70.21;98407.28;5136671;27;20181;-87
2021/12/11 04:12:25;;;;;;;0.73;0.40;;;;;;;10.75;70.33;98428.78;5136885;27;20667;-88
2021/12/11 04:14:53;;;;;;;0.77;0.43;;;;;;;10.64;70.46;98416.38;5137689;27;20638;-87
2021/12/11 04:17:23;;;;;;;3.43;1.00;;;;;;;10.86;69.67;98421.06;5137128;27;20163;-88
2021/12/11 04:19:57;;;;;;;4.43;0.63;;;;;;;10.95;69.19;98429.16;5136993;27;20237;-88
2021/12/11 04:22:25;;;;;;;1.27;0.47;;;;;;;11.05;68.73;98437.28;5118375;27;20663;-87
2021/12/11 04:24:52;;;;;;;1.93;0.60;;;;;;;11.06;68.61;98439.78;5118650;27;20218;-88
2021/12/11 04:27:23;;;;;;;2.73;0.67;;;;;;;11.06;68.69;98445.03;5136651;27;20244;-88
2021/12/11 04:29:51;;;;;;;0.63;0.47;;;;;;;11.14;68.18;98451.59;5119281;27;20612;-88
2021/12/11 04:32:20;;;;;;;4.67;0.80;;;;;;;11.05;68.50;98456.50;5118467;27;20199;-88
2021/12/11 04:34:48;;;;;;;0.53;0.23;;;;;;;11.21;67.70;98456.31;5118289;27;20632;-88
2021/12/11 04:37:20;;;;;;;0.63;0.27;;;;;;;11.18;67.86;98438.16;5135193;27;20202;-87
2021/12/11 04:39:56;;;;;;;0.50;0.37;;;;;;;11.33;67.06;98437.13;5102300;27;20521;-88
2021/12/11 04:44:53;;;;;;;2.33;0.90;;;;;;;11.39;66.37;98442.00;5136766;27;20203;-89
2021/12/11 04:47:34;;;;;;;2.63;0.93;;;;;;;11.47;66.05;98447.56;5118192;27;20171;-88
2021/12/11 04:50:21;;;;;;;5.27;2.23;;;;;;;11.64;65.29;98434.13;5119105;27;20199;-89
2021/12/11 04:52:55;;;;;;;3.57;1.47;;;;;;;11.58;65.15;98413.53;5136881;27;20286;-88
2021/12/11 05:01:30;;;;;;;2.93;1.57;;;;;;;11.77;64.73;98412.31;5135865;27;20179;-88
2021/12/11 05:06:19;;;;;;;2.03;0.80;;;;;;;11.68;64.56;98406.78;5136284;27;20964;-88
2021/12/11 05:11:16;;;;;;;1.60;0.50;;;;;;;11.20;67.11;98399.56;5135763;27;20171;-88
2021/12/11 05:13:47;;;;;;;1.70;0.60;;;;;;;11.25;67.14;98405.31;5135927;27;20521;-86
2021/12/11 05:16:16;;;;;;;1.03;0.70;;;;;;;11.33;67.01;98395.16;5135840;27;20159;-87
2021/12/11 05:18:48;;;;;;;2.23;0.80;;;;;;;11.31;66.74;98375.22;5117827;27;20175;-88
2021/12/11 05:21:17;;;;;;;0.43;0.43;;;;;;;11.46;65.98;98385.53;5135408;27;20498;-87
2021/12/11 05:23:49;;;;;;;3.63;1.13;;;;;;;11.43;66.22;98392.75;5135682;27;20202;-87
2021/12/11 05:26:16;;;;;;;1.10;0.50;;;;;;;11.38;66.55;98374.69;5136044;27;20280;-90
2021/12/11 05:28:42;;;;;;;1.93;0.90;;;;;;;11.35;66.56;98385.41;5117237;27;20194;-88
2021/12/11 05:31:09;;;;;;;9.53;0.60;;;;;;;11.40;66.51;98387.72;5135663;27;20175;-89
2021/12/11 05:33:36;;;;;;;0.53;0.43;;;;;;;11.81;65.07;98379.66;5134519;27;20163;-86
2021/12/11 05:36:03;;;;;;;1.90;1.00;;;;;;;12.01;64.27;98371.22;5135448;27;20178;-87
2021/12/11 05:38:28;;;;;;;2.40;0.73;;;;;;;12.03;63.72;98385.94;5117340;27;20172;-91
2021/12/11 05:40:59;;;;;;;2.40;0.60;;;;;;;11.92;64.33;98382.41;5117327;27;20172;-88
2021/12/11 05:43:26;;;;;;;0.67;0.37;;;;;;;11.78;64.86;98374.63;5135383;27;20244;-88
2021/12/11 05:45:52;;;;;;;0.70;0.60;;;;;;;11.97;65.02;98367.16;5135598;27;20701;-89
2021/12/11 05:48:18;;;;;;;3.50;0.67;;;;;;;12.08;64.21;98367.25;5134438;27;20254;-88
2021/12/11 05:50:50;;;;;;;2.40;0.80;;;;;;;12.12;64.05;98359.03;5135269;27;20164;-88
2021/12/11 05:53:17;;;;;;;2.23;0.77;;;;;;;12.08;64.46;98375.13;5135432;27;20197;-89
2021/12/11 05:55:45;;;;;;;0.87;0.60;;;;;;;12.17;64.31;98384.97;5134794;27;20209;-88
2021/12/11 05:58:13;;;;;;;1.87;0.50;;;;;;;12.29;64.02;98390.19;5116135;27;20177;-88
2021/12/11 06:00:44;;;;;;;4.00;1.60;;;;;;;12.40;63.25;98384.16;5134448;27;20610;-88
2021/12/11 06:03:10;;;;;;;14.67;3.00;;;;;;;12.32;63.67;98391.75;5135036;27;20720;-88
2021/12/11 06:05:35;;;;;;;8.10;0.83;;;;;;;12.21;64.41;98400.38;5134228;27;20165;-88
2021/12/11 06:08:03;;;;;;;2.70;0.70;;;;;;;12.23;64.45;98395.03;5117145;27;20629;-88
2021/12/11 06:10:29;;;;;;;17.23;3.83;;;;;;;12.45;64.33;98376.78;5134842;27;20205;-89
2021/12/11 06:12:59;;;;;;;31.80;6.80;;;;;;;12.43;63.94;98383.94;5134753;27;20605;-89
2021/12/11 06:15:25;;;;;;;16.37;5.27;;;;;;;12.23;64.66;98402.94;5134502;27;20173;-88
2021/12/11 06:17:51;;;;;;;10.70;2.23;;;;;;;11.92;66.13;98398.16;5134554;27;20185;-88
2021/12/11 06:20:23;;;;;;;15.53;3.07;;;;;;;12.04;65.83;98392.03;5116491;27;20214;-88
2021/12/11 06:22:48;;;;;;;12.20;2.03;;;;;;;12.35;64.80;98386.28;5135004;27;20153;-89
2021/12/11 06:25:21;;;;;;;2.27;1.43;;;;;;;12.71;63.97;98393.31;5116120;27;20192;-88
2021/12/11 06:27:47;;;;;;;4.67;1.10;;;;;;;12.86;63.37;98403.53;5116315;27;20231;-88
2021/12/11 06:30:14;;;;;;;5.37;1.73;;;;;;;12.77;63.78;98403.38;5134287;27;20560;-88
2021/12/11 06:32:42;;;;;;;4.43;1.97;;;;;;;12.74;64.19;98414.94;5134470;27;20291;-88
2021/12/11 06:35:31;;;;;;;10.10;2.50;;;;;;;12.75;64.95;98408.75;5134078;27;20282;-89
2021/12/11 06:38:00;;;;;;;9.17;1.47;;;;;;;12.52;67.77;98398.22;5135037;27;20512;-86
2021/12/11 06:40:28;;;;;;;1.73;1.00;;;;;;;12.40;69.21;98399.91;5134430;27;20247;-85
2021/12/11 06:42:56;;;;;;;1.27;0.70;;;;;;;12.23;69.56;98393.25;5134985;27;20512;-90
2021/12/11 06:45:23;;;;;;;1.20;0.77;;;;;;;12.17;69.88;98387.59;5134007;27;20716;-91
2021/12/11 06:47:49;;;;;;;5.57;1.67;;;;;;;12.30;69.68;98391.03;5134052;27;20172;-86
2021/12/11 06:50:16;;;;;;;6.23;1.10;;;;;;;12.42;68.92;98389.31;5134212;27;20179;-85
2021/12/11 06:52:42;;;;;;;1.90;0.83;;;;;;;12.48;69.72;98376.56;5116108;28;20203;-87
2021/12/11 06:55:09;;;;;;;1.23;0.63;;;;;;;12.49;69.38;98388.75;5134664;27;20322;-87
2021/12/11 06:57:34;;;;;;;2.07;1.20;;;;;;;12.60;69.50;98374.84;5116540;28;20170;-87
2021/12/11 07:00:01;;;;;;;3.83;1.00;;;;;;;12.71;69.41;98382.78;5114410;28;20181;-89
2021/12/11 07:02:26;;;;;;;4.90;2.23;;;;;;;12.76;68.81;98384.09;5116058;28;20257;-89
2021/12/11 07:04:55;;;;;;;4.80;1.57;;;;;;;12.71;69.21;98375.72;5116404;28;20254;-89
2021/12/11 07:07:24;;;;;;;1.47;0.80;;;;;;;12.85;68.79;98374.72;5116947;28;20178;-87
2021/12/11 07:09:53;;;;;;;6.83;1.47;;;;;;;12.93;68.47;98382.88;5134130;28;20163;-86
2021/12/11 07:12:19;;;;;;;4.87;1.23;;;;;;;13.05;67.90;98370.63;5116302;28;20193;-93
2021/12/11 07:14:45;;;;;;;2.83;0.60;;;;;;;13.18;67.40;98384.56;5115983;28;20182;-87
2021/12/11 07:17:12;;;;;;;7.33;1.60;;;;;;;13.28;66.88;98383.75;5115315;28;20635;-86
2021/12/11 07:19:38;;;;;;;1.90;0.80;;;;;;;13.44;65.55;98394.78;5115842;28;20255;-88
2021/12/11 07:22:04;;;;;;;3.80;0.93;;;;;;;13.66;65.68;98393.16;5115959;28;20242;-89
2021/12/11 07:24:47;;;;;;;1.63;0.87;;;;;;;13.80;64.02;98396.41;5134129;28;20174;-89
2021/12/11 07:27:13;;;;;;;7.20;1.90;;;;;;;13.95;63.70;98389.94;5116555;28;20182;-86
2021/12/11 07:29:40;;;;;;;3.43;0.70;;;;;;;14.12;62.55;98401.81;5115741;28;20715;-88
2021/12/11 07:32:07;;;;;;;2.90;0.63;;;;;;;14.37;61.91;98398.09;5115762;28;20203;-87
2021/12/11 07:34:33;;;;;;;5.93;1.13;;;;;;;14.46;61.89;98416.66;5133838;28;20176;-89
2021/12/11 07:36:59;;;;;;;9.50;1.23;;;;;;;14.60;61.13;98424.31;5115491;28;20259;-88
2021/12/11 07:39:25;;;;;;;1.83;0.60;;;;;;;14.68;60.75;98418.41;5133657;28;20663;-90
2021/12/11 07:41:53;;;;;;;5.20;1.37;;;;;;;14.59;61.28;98427.91;5115606;28;20171;-88
2021/12/11 07:44:22;;;;;;;5.40;0.83;;;;;;;14.63;61.37;98420.56;5131733;28;20641;-88
2021/12/11 07:46:50;;;;;;;2.90;0.67;;;;;;;14.78;60.32;98427.25;5132785;28;20178;-89
2021/12/11 07:49:16;;;;;;;10.23;1.60;;;;;;;14.86;60.02;98429.28;5115325;28;20663;-88
2021/12/11 07:51:42;;;;;;;7.43;0.90;;;;;;;15.03;60.13;98419.03;5114955;28;20204;-88
2021/12/11 07:54:08;;;;;;;4.13;0.97;;;;;;;14.90;59.81;98421.00;5115773;28;20179;-89
2021/12/11 07:56:36;;;;;;;2.97;1.00;;;;;;;14.84;60.40;98410.94;5133514;28;20182;-89
2021/12/11 07:59:05;;;;;;;3.67;0.83;;;;;;;14.82;61.19;98407.59;5115662;28;20537;-89
2021/12/11 08:01:36;;;;;;;3.57;1.10;;;;;;;14.98;60.83;98397.47;5115389;28;20177;-89
2021/12/11 08:04:05;;;;;;;7.97;1.33;;;;;;;15.01;60.11;98391.94;5115860;28;20681;-89
2021/12/11 08:06:34;;;;;;;4.77;1.40;;;;;;;14.88;61.38;98391.28;5133261;28;20180;-88
2021/12/11 08:09:34;;;;;;;5.13;1.60;;;;;;;14.84;61.68;98391.63;5133048;28;20182;-89
2021/12/11 08:12:02;;;;;;;3.23;1.07;;;;;;;14.72;63.80;98377.66;5135414;27;20207;-90
2021/12/11 08:14:29;;;;;;;11.00;1.60;;;;;;;14.95;63.45;98389.78;5136810;27;20173;-88
2021/12/11 08:16:58;;;;;;;3.03;1.10;;;;;;;14.85;63.58;98393.31;5118302;27;20184;-89
2021/12/11 08:19:29;;;;;;;5.17;1.20;;;;;;;14.50;64.98;98396.16;5128012;27;20180;-89
2021/12/11 08:21:59;;;;;;;4.80;0.80;;;;;;;14.68;64.55;98389.38;5111413;27;20268;-90
2021/12/11 08:24:29;;;;;;;6.67;1.13;;;;;;;14.68;65.54;98382.31;5117300;27;20173;-88
2021/12/11 08:27:06;;;;;;;8.70;1.23;;;;;;;14.76;66.13;98385.19;5136673;27;20232;-89
2021/12/11 08:29:33;;;;;;;8.13;1.20;;;;;;;14.78;67.72;98391.16;5136788;27;20164;-89
2021/12/11 08:32:00;;;;;;;1.73;0.70;;;;;;;14.26;69.32;98388.38;5136519;27;20277;-89
2021/12/11 08:34:30;;;;;;;2.53;0.67;;;;;;;14.29;69.78;98382.00;5136695;27;20176;-89
2021/12/11 08:36:59;;;;;;;4.57;1.00;;;;;;;14.32;69.91;98387.91;5136523;27;20168;-89
2021/12/11 08:39:28;;;;;;;9.27;1.20;;;;;;;14.23;70.90;98382.53;5135185;27;20593;-89
2021/12/11 08:42:18;;;;;;;8.77;1.67;;;;;;;13.98;70.92;98383.59;5103160;27;20267;-88
2021/12/11 08:44:58;;;;;;;1.97;0.80;;;;;;;13.93;72.42;98378.69;5119040;27;20171;-93
2021/12/11 08:47:39;;;;;;;5.03;1.10;;;;;;;14.14;72.32;98379.66;5115465;27;20258;-94
2021/12/11 08:50:13;;;;;;;2.73;0.97;;;;;;;14.38;71.59;98365.50;5118518;27;20222;-94
2021/12/11 08:52:43;;;;;;;3.07;1.20;;;;;;;14.66;71.21;98365.78;5119050;27;20218;-93
2021/12/11 08:55:14;;;;;;;4.10;1.60;;;;;;;14.76;71.05;98360.59;5102303;27;20241;-93
2021/12/11 08:57:41;;;;;;;5.33;1.90;;;;;;;14.69;71.14;98365.53;5118886;27;20262;-94
2021/12/11 09:00:20;;;;;;;8.30;1.60;;;;;;;14.56;71.09;98362.22;5108756;28;20226;-93
2021/12/11 09:03:00;;;;;;;6.50;1.90;;;;;;;14.30;73.21;98357.34;5112625;28;20160;-93
2021/12/11 09:06:01;;;;;;;3.13;1.23;;;;;;;13.74;76.58;98348.63;5090565;28;20241;-91
2021/12/11 09:08:40;;;;;;;1.83;1.23;;;;;;;13.81;77.52;98350.66;5106195;27;20174;-93
2021/12/11 09:11:20;;;;;;;3.75;1.05;;;;;;;13.80;77.97;98333.19;5118852;27;20639;-93
2021/12/11 09:14:07;;;;;;;5.27;1.30;;;;;;;13.97;77.96;98330.06;5157246;27;20158;-93
2021/12/11 09:17:01;;;;;;;3.57;1.20;;;;;;;14.01;78.56;98331.50;5098366;28;20171;-92
2021/12/11 09:19:49;;;;;;;2.90;1.47;;;;;;;14.08;77.67;98322.16;5097749;28;20164;-93
2021/12/11 09:22:34;;;;;;;7.13;1.40;;;;;;;14.18;78.13;98315.19;5097856;27;20582;-92
2021/12/11 09:25:14;;;;;;;8.87;1.77;;;;;;;13.97;79.26;98311.63;5102792;27;20163;-93
2021/12/11 09:28:03;;;;;;;7.00;1.53;;;;;;;14.03;79.71;98308.50;5097529;28;20226;-94
2021/12/11 09:30:51;;;;;;;12.67;2.53;;;;;;;14.16;79.64;98297.81;5096135;28;20184;-92
2021/12/11 09:33:22;;;;;;;5.47;2.53;;;;;;;13.87;81.20;98296.66;5113953;28;20252;-91
2021/12/11 09:35:59;;;;;;;10.63;3.00;;;;;;;13.81;81.72;98299.81;5115099;28;20636;-90
2021/12/11 09:38:34;;;;;;;11.30;2.77;;;;;;;13.89;82.00;98305.28;5115203;28;20696;-90
2021/12/11 09:41:24;;;;;;;3.90;1.57;;;;;;;13.85;82.59;98294.16;5114799;28;20617;-91
2021/12/11 09:44:15;;;;;;;5.83;2.47;;;;;;;13.82;82.86;98291.75;5115298;28;20155;-91
2021/12/11 09:47:20;;;;;;;9.80;1.90;;;;;;;13.79;83.14;98293.78;5109107;28;20214;-91
2021/12/11 10:03:26;;;;;;;4.37;1.83;;;;;;;13.25;91.55;98272.63;4939257;28;20632;-92
2021/12/11 10:06:10;;;;;;;5.60;2.30;;;;;;;13.34;91.42;98266.63;4990660;28;20199;-91
2021/12/11 10:12:08;;;;;;;2.67;1.33;;;;;;;13.32;92.02;98279.91;4964724;28;20274;-92
2021/12/11 10:14:58;;;;;;;9.87;2.67;;;;;;;13.20;94.39;98282.66;4973013;28;20180;-92
2021/12/11 10:18:21;;;;;;;15.90;3.67;;;;;;;13.00;96.40;98284.13;4947522;28;20235;-94
2021/12/11 10:21:22;;;;;;;14.93;4.30;;;;;;;13.17;95.89;98260.06;4925437;29;20190;-93
2021/12/11 10:23:50;;;;;;;4.77;1.70;;;;;;;12.87;98.00;98260.56;4945739;28;20191;-90
2021/12/11 10:26:19;;;;;;;8.03;2.10;;;;;;;12.90;99.60;98257.69;5064526;28;20745;-90
2021/12/11 10:28:48;;;;;;;5.33;1.80;;;;;;;13.10;99.48;98260.66;5094047;28;20175;-90
2021/12/11 10:31:21;;;;;;;8.90;3.50;;;;;;;12.86;100.00;98258.91;5075993;28;20179;-91
2021/12/11 10:33:47;;;;;;;7.03;2.40;;;;;;;12.94;100.00;98245.16;5074938;28;20622;-91
2021/12/11 10:36:16;;;;;;;6.67;2.10;;;;;;;13.12;99.68;98245.56;5092376;28;20181;-90
2021/12/11 10:38:42;;;;;;;3.87;1.50;;;;;;;13.02;100.00;98237.53;5093539;28;20179;-87
2021/12/11 10:41:11;;;;;;;4.03;1.63;;;;;;;13.12;99.94;98238.53;5093480;28;20165;-89
2021/12/11 10:43:43;;;;;;;4.10;2.20;;;;;;;13.13;99.11;98236.72;5093414;28;20527;-88
2021/12/11 10:46:13;;;;;;;4.13;1.77;;;;;;;13.22;99.10;98238.63;5093375;28;20222;-91
2021/12/11 10:48:39;;;;;;;9.07;1.73;;;;;;;13.30;98.41;98234.47;5093746;28;20598;-90
2021/12/11 10:51:12;;;;;;;4.37;1.57;;;;;;;13.18;98.90;98234.59;5093788;28;20172;-91
2021/12/11 10:53:42;;;;;;;2.87;1.23;;;;;;;13.11;99.42;98241.25;5093452;28;20168;-89
2021/12/11 10:56:08;;;;;;;8.40;2.13;;;;;;;12.95;100.00;98231.88;5093459;28;20173;-92
2021/12/11 10:58:45;;;;;;;6.03;2.20;;;;;;;12.90;100.00;98230.56;5094015;28;20250;-92
2021/12/11 11:01:27;;;;;;;4.20;2.03;;;;;;;13.32;100.00;98231.69;5075983;28;20168;-94
2021/12/11 11:03:57;;;;;;;5.10;1.77;;;;;;;13.29;99.36;98238.03;5093322;28;20153;-92
2021/12/11 11:06:24;;;;;;;3.87;1.33;;;;;;;13.41;99.11;98241.53;5093764;28;20243;-93
2021/12/11 11:08:50;;;;;;;4.00;1.70;;;;;;;13.42;98.18;98246.66;5093334;28;20213;-92
2021/12/11 11:11:26;;;;;;;10.93;3.13;;;;;;;13.33;99.92;98243.91;5075530;28;20187;-91
2021/12/11 11:13:52;;;;;;;6.87;2.03;;;;;;;13.41;98.78;98236.25;5075529;28;20554;-91
2021/12/11 11:16:20;;;;;;;7.53;2.37;;;;;;;13.32;99.90;98222.00;5093020;28;20169;-90
2021/12/11 11:18:47;;;;;;;6.20;2.00;;;;;;;13.64;97.85;98208.94;5075356;28;20168;-90
2021/12/11 11:21:41;;;;;;;7.70;2.63;;;;;;;13.61;97.15;98203.94;5093019;28;20638;-91
2021/12/11 11:24:12;;;;;;;15.13;2.87;;;;;;;13.70;96.97;98195.31;5093552;28;20156;-90
2021/12/11 11:26:44;;;;;;;6.23;2.93;;;;;;;13.57;98.13;98195.41;5093428;28;20674;-89
2021/12/11 11:29:14;;;;;;;4.10;1.10;;;;;;;13.33;100.00;98196.53;5093327;28;20165;-90
2021/12/11 11:31:41;;;;;;;1.90;1.00;;;;;;;13.32;100.00;98195.69;5093109;28;20204;-89
2021/12/11 11:34:13;;;;;;;6.00;1.20;;;;;;;13.57;100.00;98180.59;5093520;28;20527;-91
2021/12/11 11:36:52;;;;;;;7.30;2.10;;;;;;;13.38;100.00;98184.69;5075469;28;20590;-90
2021/12/11 11:39:23;;;;;;;14.50;4.63;;;;;;;13.57;100.00;98190.16;5093300;28;20180;-90
2021/12/11 11:41:56;;;;;;;8.37;2.23;;;;;;;13.50;100.00;98174.97;5093558;28;20235;-91
2021/12/11 11:44:27;;;;;;;10.80;2.50;;;;;;;13.54;100.00;98179.91;5093462;28;20152;-91
2021/12/11 11:47:25;;;;;;;4.53;1.83;;;;;;;13.78;98.45;98170.97;5078462;28;20593;-91
2021/12/11 11:51:13;;;;;;;10.50;1.97;;;;;;;13.75;98.42;98172.06;5097328;28;20169;-92
2021/12/11 11:53:53;;;;;;;7.30;1.60;;;;;;;13.64;97.34;98158.91;5091182;28;20223;-91
2021/12/11 11:56:44;;;;;;;5.27;1.00;;;;;;;13.70;96.00;98152.34;5078962;28;20248;-89
2021/12/11 11:59:11;;;;;;;2.83;0.57;;;;;;;13.53;94.42;98143.16;5097162;28;20168;-90
2021/12/11 12:01:44;;;;;;;5.47;0.83;;;;;;;13.46;95.28;98150.72;5096480;28;20168;-93
2021/12/11 12:04:18;;;;;;;4.43;0.80;;;;;;;13.66;95.09;98154.38;5097186;28;20160;-90
2021/12/11 12:06:55;;;;;;;6.80;1.87;;;;;;;13.70;93.38;98136.53;5096946;28;20170;-91
2021/12/11 12:09:35;;;;;;;4.97;2.13;;;;;;;13.77;91.79;98132.44;5096716;28;20152;-90
2021/12/11 12:12:03;;;;;;;1.23;0.70;;;;;;;13.71;91.61;98139.03;5096394;28;20198;-89
2021/12/11 12:14:36;;;;;;;4.70;0.80;;;;;;;13.77;91.14;98146.44;5078476;28;20191;-89
2021/12/11 12:17:05;;;;;;;1.77;0.70;;;;;;;13.79;89.46;98136.59;5096616;28;20640;-88
2021/12/11 12:19:30;;;;;;;0.93;0.33;;;;;;;13.76;88.00;98136.84;5078350;28;20523;-90
2021/12/11 12:22:01;;;;;;;12.17;1.23;;;;;;;13.82;87.83;98135.53;5078244;28;20182;-89
2021/12/11 12:24:31;;;;;;;4.23;0.87;;;;;;;13.97;86.95;98137.75;5078255;28;20162;-89
2021/12/11 12:27:01;;;;;;;3.13;0.97;;;;;;;14.10;85.78;98133.13;5096043;28;20249;-89
2021/12/11 12:29:27;;;;;;;2.50;0.90;;;;;;;13.91;85.65;98130.34;5096007;28;20177;-88